CW3315 Weather Reports


Display with metric or nautical units.
time (UTC)temp
F
wind
direction
speed
MPH
gust
MPH
rain 1hr
in
rain 24hr
in
rain mn
in
humidity
%
barometer
mb
20210924025517 56 294 3.0 5.0 0.00 1.60 1.59 99 1014.8
20210924025021 56 206 3.0 5.0 0.01 1.60 1.59 99 1014.6
20210924024518 56 260 3.0 3.0 0.01 1.60 1.59 99 1014.6
20210924024021 56 262 2.0 5.0 0.01 1.60 1.59 99 1014.7
20210924023517 56 270 4.0 6.0 0.02 1.60 1.59 99 1014.7
20210924023022 56 240 3.0 6.0 0.02 1.60 1.59 99 1014.8
20210924022518 56 259 3.0 6.0 0.02 1.60 1.59 99 1014.9
20210924022021 56 283 2.0 5.0 0.04 1.60 1.59 99 1014.9
20210924021517 56 239 3.0 6.0 0.04 1.61 1.59 99 1014.9
20210924021021 56 248 4.0 6.0 0.04 1.61 1.59 99 1014.9
20210924020518 56 248 4.0 7.0 0.04 1.61 1.59 99 1014.9
20210924020017 57 241 8.0 10.0 0.04 1.62 1.59 99 1014.9
20210924015517 57 174 5.0 7.0 0.04 1.62 1.59 99 1014.9
20210924015021 57 241 6.0 8.0 0.03 1.61 1.58 99 1014.8
20210924014517 57 234 5.0 9.0 0.03 1.61 1.58 99 1014.8
20210924014021 57 249 5.0 8.0 0.03 1.61 1.58 99 1014.5
20210924013523 57 280 5.0 7.0 0.02 1.60 1.57 99 1014.5
20210924013025 57 255 3.0 5.0 0.02 1.60 1.57 99 1014.7
20210924012517 57 239 3.0 5.0 0.02 1.60 1.57 99 1014.7
20210924012020 58 204 3.0 5.0 0.01 1.58 1.55 99 1014.7
20210924011518 58 146 5.0 7.0 0.02 1.58 1.55 99 1014.4
20210924011021 58 239 3.0 6.0 0.02 1.58 1.55 99 1014.4
20210924010517 58 216 3.0 6.0 0.03 1.58 1.55 99 1014.4
20210924010018 58 232 3.0 6.0 0.04 1.58 1.55 99 1014.4
20210924005518 58 180 3.0 7.0 0.06 1.58 1.55 99 1014.3
20210924005021 58 222 5.0 7.0 0.06 1.58 1.55 99 1014.1
20210924004519 58 280 5.0 8.0 0.06 1.58 1.55 99 1014.1
20210924004023 59 269 9.0 14.0 0.08 1.58 1.55 99 1013.8
20210924003518 59 191 7.0 14.0 0.12 1.58 1.55 99 1013.8
20210924003023 60 255 9.0 16.0 0.16 1.58 1.55 99 1013.7
20210924002519 62 202 12.0 15.0 0.16 1.58 1.55 99 1013.6
20210924002023 63 261 10.0 15.0 0.16 1.57 1.54 99 1013.6
20210924001517 63 239 9.0 12.0 0.19 1.56 1.53 99 1013.3
20210924001024 64 212 8.0 10.0 0.34 1.56 1.53 99 1013.3
20210924000517 64 212 6.0 8.0 0.36 1.55 1.52 99 1013.5
20210924000017 64 213 6.0 12.0 0.39 1.54 1.51 99 1013.5
20210923235517 64 248 6.0 10.0 0.38 1.52 1.49 99 1013.5
20210923235027 65 229 5.0 7.0 0.43 1.52 1.49 99 1013.4
20210923234519 65 225 6.0 8.0 0.47 1.52 1.49 99 1013.4
20210923234027 65 232 5.0 7.0 0.48 1.50 1.47 99 1013.3
20210923233519 65 237 5.0 9.0 0.46 1.46 1.43 99 1013.3
20210923233023 65 248 10.0 13.0 0.44 1.42 1.39 99 1012.9
20210923232518 66 246 6.0 14.0 0.51 1.42 1.39 99 1012.9
20210923232020 66 167 9.0 21.0 0.51 1.41 1.38 99 1012.9
20210923231516 66 169 12.0 21.0 0.47 1.37 1.34 99 1012.9
20210923231020 67 175 13.0 24.0 0.34 1.22 1.19 99 1012.9
20210923230518 67 243 11.0 24.0 0.33 1.19 1.16 99 1012.5
20210923230017 67 180 6.0 18.0 0.29 1.15 1.12 99 1012.5
20210923225517 67 305 9.0 17.0 0.30 1.14 1.11 99 1012.5
20210923225022 67 284 6.0 15.0 0.27 1.09 1.06 99 1012.2
20210923224517 67 167 7.0 14.0 0.26 1.05 1.02 99 1012.2
20210923224022 67 138 6.0 14.0 0.27 1.02 0.99 99 1012.7
20210923223517 67 155 10.0 15.0 0.29 1.00 0.97 99 1012.7
20210923223023 67 212 9.0 15.0 0.30 0.98 0.95 99 1012.7
20210923222517 67 136 10.0 17.0 0.28 0.91 0.88 99 1012.1
20210923222023 67 180 13.0 18.0 0.31 0.90 0.87 99 1012.1
20210923221520 67 223 11.0 21.0 0.34 0.90 0.87 99 1011.8
20210923221020 67 177 9.0 17.0 0.33 0.88 0.85 99 1011.8
20210923220516 67 168 12.0 20.0 0.31 0.86 0.83 99 1011.9
20210923220017 67 156 12.0 17.0 0.32 0.86 0.83 99 1011.9
20210923215523 67 181 10.0 10.0 0.31 0.84 0.81 99 1011.9
20210923215020 67 146 7.0 16.0 0.29 0.82 0.79 99 1012.6
20210923214517 67 132 11.0 21.0 0.28 0.79 0.76 99 1012.6
20210923214021 66 180 10.0 12.0 0.26 0.75 0.72 99 1012.4
20210923213517 66 141 9.0 14.0 0.30 0.71 0.68 99 1012.4
20210923213021 66 135 8.0 10.0 0.33 0.68 0.65 99 1012.5
20210923212520 66 210 11.0 17.0 0.30 0.63 0.60 99 1012.7
20210923212020 66 227 9.0 15.0 0.28 0.59 0.56 99 1012.7
20210923211517 67 211 7.0 13.0 0.28 0.56 0.53 99 1012.8
20210923211021 66 186 5.0 10.0 0.29 0.55 0.52 99 1012.8
20210923210516 66 217 7.0 10.0 0.31 0.55 0.52 99 1012.7
20210923210016 66 112 6.0 10.0 0.31 0.54 0.51 99 1012.7
20210923205516 66 141 6.0 9.0 0.31 0.53 0.50 99 1012.7
20210923205020 66 150 5.0 8.0 0.32 0.53 0.50 99 1012.9
20210923204516 66 137 4.0 6.0 0.31 0.51 0.48 99 1012.9
20210923204020 66 125 5.0 7.0 0.30 0.49 0.46 99 1013.1
20210923203516 66 218 6.0 10.0 0.23 0.41 0.38 99 1013.1
20210923203020 66 200 6.0 12.0 0.18 0.35 0.32 99 1013.0
20210923202516 66 212 6.0 9.0 0.18 0.33 0.30 99 1012.9
20210923202020 66 180 7.0 13.0 0.17 0.31 0.28 99 1012.9
20210923201517 66 171 8.0 16.0 0.16 0.28 0.25 99 1013.1
20210923201020 66 211 8.0 16.0 0.17 0.26 0.23 99 1013.1
20210923200516 67 158 8.0 9.0 0.18 0.24 0.21 99 1012.9
20210923200018 67 133 9.0 17.0 0.17 0.23 0.20 99 1012.9
20210923195516 67 168 7.0 15.0 0.16 0.22 0.19 99 1012.9
20210923195019 66 159 7.0 18.0 0.15 0.21 0.18 99 1012.7
20210923194517 67 168 12.0 18.0 0.14 0.20 0.17 98 1012.7
20210923194020 66 170 9.0 15.0 0.13 0.19 0.16 98 1012.8
20210923193516 66 5 6.0 10.0 0.12 0.18 0.15 99 1012.8
20210923193020 66 192 10.0 14.0 0.11 0.17 0.14 98 1013.4
20210923192516 66 131 6.0 9.0 0.09 0.15 0.12 97 1013.7
20210923192021 67 183 7.0 21.0 0.08 0.14 0.11 97 1013.7
20210923191517 67 159 6.0 10.0 0.06 0.12 0.09 95 1013.7
20210923191019 68 158 7.0 10.0 0.03 0.09 0.06 92 1013.7
20210923190516 68 116 6.0 15.0 0.00 0.06 0.03 90 1013.6
20210923190016 68 228 5.0 8.0 0.00 0.06 0.03 92 1013.6
20210923185516 68 258 6.0 10.0 0.00 0.06 0.03 90 1013.6
20210923185020 68 213 8.0 13.0 0.00 0.06 0.03 90 1013.5
20210923184516 68 207 5.0 13.0 0.00 0.06 0.03 91 1013.5
20210923184020 68 173 6.0 12.0 0.00 0.06 0.03 92 1013.7
20210923183516 69 204 9.0 16.0 0.00 0.06 0.03 89 1013.7
20210923183021 69 153 7.0 20.0 0.00 0.06 0.03 88 1013.7
20210923182516 69 212 9.0 10.0 0.00 0.06 0.03 90 1013.7
20210923182020 69 169 10.0 13.0 0.00 0.06 0.03 90 1013.7
20210923181516 69 210 13.0 20.0 0.00 0.06 0.03 90 1013.6
20210923181021 69 158 11.0 15.0 0.00 0.06 0.03 92 1013.6
20210923180517 70 180 7.0 15.0 0.00 0.06 0.03 89 1013.6
20210923180017 70 89 9.0 16.0 0.00 0.06 0.03 90 1013.6
20210923175516 70 202 9.0 13.0 0.00 0.06 0.03 89 1013.6
20210923175020 70 200 8.0 15.0 0.00 0.06 0.03 88 1013.2
20210923174517 71 153 12.0 16.0 0.00 0.06 0.03 87 1013.2
20210923174020 71 158 8.0 15.0 0.00 0.06 0.03 84 1013.6
20210923173516 72 226 6.0 10.0 0.00 0.06 0.03 83 1013.6
20210923173020 72 188 10.0 18.0 0.00 0.06 0.03 81 1013.6
20210923172516 73 159 13.0 18.0 0.00 0.06 0.03 79 1013.5
20210923172019 74 150 7.0 14.0 0.00 0.06 0.03 79 1013.5
20210923171516 72 190 5.0 17.0 0.00 0.06 0.03 84 1013.6
20210923171030 71 210 9.0 17.0 0.00 0.06 0.03 84 1013.6
20210923170516 71 225 9.0 10.0 0.00 0.06 0.03 84 1013.5
20210923170016 71 259 7.0 13.0 0.00 0.06 0.03 85 1013.5
20210923165516 71 229 12.0 20.0 0.00 0.06 0.03 84 1013.5
20210923165019 71 302 10.0 17.0 0.00 0.06 0.03 85 1013.6
20210923164516 71 166 7.0 12.0 0.00 0.06 0.03 87 1013.6
20210923164021 71 148 7.0 16.0 0.00 0.06 0.03 86 1013.8
20210923163516 70 199 6.0 16.0 0.00 0.06 0.03 86 1013.8
20210923163020 70 146 9.0 16.0 0.00 0.06 0.03 88 1013.8
20210923162516 70 167 8.0 15.0 0.00 0.06 0.03 89 1013.9
20210923162021 69 202 7.0 16.0 0.00 0.06 0.03 91 1013.9
20210923161517 68 193 5.0 13.0 0.01 0.06 0.03 93 1014.1
20210923161019 68 180 9.0 12.0 0.01 0.06 0.03 92 1014.1
20210923160516 69 210 5.0 10.0 0.01 0.06 0.03 93 1014.0
20210923160016 69 160 8.0 14.0 0.01 0.06 0.03 92 1014.0
20210923155517 70 175 6.0 12.0 0.01 0.06 0.03 90 1014.0
20210923155020 70 150 6.0 9.0 0.01 0.06 0.03 90 1014.0
20210923154516 70 231 11.0 15.0 0.01 0.06 0.03 90 1014.0
20210923154020 70 207 9.0 14.0 0.01 0.06 0.03 88 1013.9
20210923153516 72 195 10.0 16.0 0.01 0.06 0.03 84 1013.9
20210923153020 73 181 7.0 13.0 0.01 0.06 0.03 83 1013.9
20210923152516 71 169 9.0 13.0 0.01 0.06 0.03 86 1013.9
20210923152019 70 159 9.0 17.0 0.01 0.06 0.03 88 1013.9
20210923151515 70 253 6.0 10.0 0.00 0.05 0.02 88 1013.8
20210923151019 70 121 11.0 14.0 0.00 0.05 0.02 87 1013.8
20210923150516 70 227 6.0 10.0 0.00 0.05 0.02 88 1013.9
20210923150017 69 178 9.0 13.0 0.00 0.05 0.02 90 1013.9
20210923145516 68 200 10.0 14.0 0.00 0.05 0.02 94 1013.9
20210923145020 68 156 7.0 16.0 0.00 0.05 0.02 94 1014.0
20210923144515 68 180 7.0 10.0 0.00 0.05 0.02 94 1014.0
20210923144019 68 88 9.0 10.0 0.00 0.05 0.02 92 1014.2
20210923143515 68 151 8.0 16.0 0.00 0.05 0.02 92 1014.2
20210923143019 68 130 9.0 13.0 0.00 0.05 0.02 90 1014.1
20210923142515 68 175 10.0 15.0 0.00 0.05 0.02 90 1014.1
20210923142019 68 130 12.0 16.0 0.00 0.05 0.02 90 1014.1
20210923141515 69 135 9.0 9.0 0.00 0.05 0.02 88 1014.3
20210923141024 68 172 6.0 10.0 0.00 0.05 0.02 89 1014.3
20210923140515 68 231 10.0 14.0 0.00 0.05 0.02 90 1014.3
20210923140016 67 177 5.0 13.0 0.00 0.05 0.02 92 1014.3
20210923135516 66 225 11.0 16.0 0.00 0.05 0.02 92 1014.3
20210923135020 66 159 10.0 15.0 0.00 0.05 0.02 93 1014.2
20210923134517 66 202 6.0 6.0 0.00 0.05 0.02 96 1014.2
20210923134021 66 199 7.0 9.0 0.00 0.05 0.02 96 1014.1
20210923133516 66 234 10.0 14.0 0.00 0.06 0.02 96 1014.1
20210923133023 67 84 9.0 16.0 0.00 0.06 0.02 94 1013.9
20210923132516 67 225 9.0 10.0 0.00 0.06 0.02 94 1013.9
20210923132020 67 161 9.0 18.0 0.00 0.06 0.02 94 1013.9
20210923131516 67 207 11.0 24.0 0.00 0.06 0.02 94 1013.6
20210923131023 67 178 10.0 21.0 0.00 0.06 0.02 93 1013.6
20210923130517 67 224 10.0 16.0 0.00 0.06 0.02 90 1013.4
20210923130029 67 261 10.0 16.0 0.00 0.06 0.02 91 1013.4
20210923125517 67 153 13.0 29.0 0.00 0.06 0.02 91 1013.4
20210923125019 66 220 12.0 16.0 0.00 0.06 0.02 93 1013.6
20210923124517 66 197 11.0 16.0 0.00 0.06 0.02 93 1013.6
20210923124023 66 190 12.0 18.0 0.00 0.06 0.02 93 1013.8
20210923123515 66 249 9.0 17.0 0.01 0.06 0.02 94 1013.8
20210923123020 66 173 11.0 17.0 0.01 0.06 0.02 93 1013.8
20210923122516 67 165 13.0 21.0 0.01 0.06 0.02 92 1013.5
20210923122020 66 94 15.0 21.0 0.01 0.06 0.02 93 1013.5
20210923121518 66 190 10.0 16.0 0.01 0.06 0.02 94 1013.7
20210923121022 66 150 12.0 16.0 0.02 0.06 0.02 94 1013.7
20210923120519 66 145 9.0 20.0 0.02 0.06 0.02 93 1013.8
20210923120022 66 182 9.0 18.0 0.02 0.06 0.02 93 1013.8
20210923115520 65 158 7.0 13.0 0.02 0.06 0.02 96 1013.8
20210923115018 65 240 5.0 9.0 0.02 0.06 0.02 97 1013.9
20210923114516 65 199 8.0 14.0 0.02 0.06 0.02 97 1013.9
20210923114019 65 80 16.0 20.0 0.02 0.06 0.02 97 1013.7
20210923113516 65 152 7.0 10.0 0.01 0.05 0.01 98 1013.7
20210923113020 65 175 6.0 12.0 0.01 0.05 0.01 98 1013.7
20210923112517 65 179 6.0 10.0 0.01 0.05 0.01 97 1013.9
20210923112019 65 234 8.0 16.0 0.01 0.05 0.01 97 1013.9
20210923111516 65 244 7.0 16.0 0.01 0.05 0.01 99 1013.8
20210923111019 65 195 7.0 17.0 0.00 0.04 0.00 99 1013.8
20210923110515 65 183 5.0 16.0 0.00 0.04 0.00 99 1013.7
20210923110016 65 197 5.0 16.0 0.00 0.04 0.00 99 1013.7
20210923105515 65 156 7.0 13.0 0.00 0.04 0.00 99 1013.7
20210923105018 65 225 8.0 16.0 0.00 0.04 0.00 99 1013.9
20210923104516 65 158 8.0 13.0 0.00 0.04 0.00 99 1013.9
20210923104019 65 167 7.0 10.0 0.00 0.04 0.00 99 1013.7
20210923103515 65 190 9.0 16.0 0.00 0.04 0.00 99 1013.7
20210923103019 65 179 8.0 8.0 0.00 0.04 0.00 97 1013.8
20210923102515 65 180 6.0 10.0 0.00 0.04 0.00 97 1013.9
20210923102018 65 186 5.0 9.0 0.00 0.04 0.00 96 1013.9
20210923101515 65 199 7.0 9.0 0.00 0.04 0.00 96 1013.8
20210923101019 65 225 7.0 18.0 0.00 0.04 0.00 95 1013.8
20210923100516 65 186 7.0 9.0 0.00 0.04 0.00 96 1013.9
20210923100016 65 196 5.0 8.0 0.00 0.04 0.00 96 1013.9
20210923095515 65 220 3.0 9.0 0.00 0.04 0.00 96 1013.9
20210923095019 65 138 7.0 12.0 0.00 0.04 0.00 94 1014.1
20210923094516 65 179 6.0 14.0 0.00 0.04 0.00 93 1014.1
20210923094018 65 213 10.0 14.0 0.00 0.04 0.00 94 1014.0
20210923093515 65 95 10.0 12.0 0.00 0.04 0.00 94 1014.0
20210923093019 65 218 7.0 14.0 0.00 0.04 0.00 94 1014.3
20210923092515 65 231 6.0 16.0 0.00 0.04 0.00 94 1014.4
20210923092019 65 215 7.0 10.0 0.00 0.04 0.00 95 1014.4
20210923091515 65 218 5.0 8.0 0.00 0.04 0.00 94 1014.4
20210923091018 65 88 10.0 16.0 0.00 0.04 0.00 94 1014.4
20210923090516 65 249 9.0 12.0 0.00 0.04 0.00 95 1014.2
20210923090015 65 146 8.0 13.0 0.00 0.04 0.00 95 1014.2
20210923085516 65 180 10.0 10.0 0.00 0.04 0.00 95 1014.2
20210923085019 65 191 10.0 14.0 0.00 0.04 0.00 94 1014.3
20210923084515 65 160 11.0 18.0 0.00 0.04 0.00 93 1014.3
20210923084019 65 214 7.0 16.0 0.00 0.04 0.00 93 1014.2
20210923083514 65 178 6.0 12.0 0.00 0.04 0.00 94 1014.2
20210923083019 65 223 6.0 10.0 0.00 0.04 0.00 93 1014.2
20210923082515 65 237 6.0 10.0 0.00 0.04 0.00 93 1014.4
20210923082021 65 146 7.0 10.0 0.00 0.04 0.00 94 1014.4
20210923081515 65 178 7.0 13.0 0.00 0.04 0.00 93 1014.5
20210923081018 65 191 9.0 12.0 0.00 0.04 0.00 92 1014.5
20210923080515 65 120 5.0 9.0 0.00 0.04 0.00 92 1014.5
20210923080015 65 225 7.0 12.0 0.00 0.04 0.00 92 1014.5
20210923075515 65 229 7.0 13.0 0.00 0.04 0.00 93 1014.5
20210923075018 65 248 5.0 12.0 0.00 0.04 0.00 94 1014.8
20210923074515 65 194 6.0 10.0 0.00 0.04 0.00 94 1014.8
20210923074019 65 80 6.0 10.0 0.00 0.04 0.00 93 1014.7
20210923073514 65 158 7.0 12.0 0.00 0.04 0.00 93 1014.7
20210923073019 66 194 7.0 9.0 0.00 0.04 0.00 91 1014.7
20210923072515 66 130 4.0 14.0 0.00 0.04 0.00 87 1014.8
20210923072019 66 190 12.0 15.0 0.00 0.04 0.00 87 1014.8
20210923071515 66 163 5.0 8.0 0.00 0.04 0.00 87 1015.1
20210923071019 67 243 11.0 15.0 0.00 0.04 0.00 86 1015.1
20210923070521 67 202 14.0 22.0 0.00 0.04 0.00 86 1015.0
20210923070016 66 256 9.0 18.0 0.00 0.04 0.00 86 1015.0
20210923065515 66 239 7.0 8.0 0.00 0.04 0.00 88 1015.0
20210923065018 67 225 8.0 16.0 0.00 0.04 0.00 89 1015.3
20210923064516 66 234 12.0 17.0 0.00 0.04 0.00 89 1015.3
20210923064018 67 241 10.0 16.0 0.00 0.04 0.00 88 1015.2
20210923063515 67 205 12.0 16.0 0.00 0.04 0.00 88 1015.2
20210923063019 67 230 11.0 16.0 0.00 0.04 0.00 87 1015.1
20210923062515 67 250 11.0 21.0 0.00 0.04 0.00 87 1015.1
20210923062018 66 212 6.0 9.0 0.00 0.04 0.00 89 1015.1
20210923061515 66 216 6.0 12.0 0.00 0.04 0.00 89 1015.2
20210923061018 67 240 9.0 13.0 0.00 0.04 0.00 89 1015.2
20210923060514 67 218 16.0 21.0 0.00 0.04 0.00 88 1015.5
20210923060016 66 193 10.0 14.0 0.00 0.04 0.00 90 1015.5
20210923055516 66 237 9.0 14.0 0.00 0.04 0.00 90 1015.5
20210923055018 66 214 6.0 10.0 0.00 0.04 0.00 92 1015.4
20210923054515 66 206 5.0 9.0 0.00 0.04 0.00 93 1015.4
20210923054019 66 225 5.0 10.0 0.00 0.04 0.00 93 1015.5
20210923053515 66 202 7.0 12.0 0.00 0.04 0.00 93 1015.5
20210923053019 66 160 7.0 13.0 0.00 0.04 0.00 93 1015.7
20210923052514 66 204 5.0 15.0 0.00 0.04 0.00 93 1015.7
20210923052019 66 236 7.0 12.0 0.00 0.04 0.00 93 1015.7
20210923051515 66 180 10.0 17.0 0.00 0.04 0.00 92 1015.6
20210923051018 66 210 5.0 20.0 0.00 0.04 0.00 92 1015.6
20210923050515 66 181 8.0 13.0 0.00 0.04 0.00 92 1015.8
20210923050016 66 263 6.0 13.0 0.00 0.04 0.00 92 1015.8
20210923045515 66 232 5.0 7.0 0.00 0.04 0.00 92 1015.8
20210923045018 66 262 8.0 12.0 0.00 0.04 0.00 91 1015.9
20210923044515 66 197 2.0 8.0 0.00 0.04 0.00 90 1015.9
20210923044018 67 173 6.0 8.0 0.00 0.04 0.00 89 1015.9
20210923043515 67 234 6.0 10.0 0.00 0.04 0.00 88 1015.9
20210923043019 67 267 6.0 10.0 0.00 0.04 0.00 88 1016.0
20210923042515 67 203 7.0 14.0 0.00 0.04 0.00 87 1016.0
20210923042018 67 240 10.0 20.0 0.01 0.04 0.00 87 1016.0
20210923041515 67 213 8.0 15.0 0.01 0.04 0.00 87 1016.2
20210923041018 67 251 9.0 16.0 0.01 0.04 0.00 86 1016.2
20210923040514 67 234 14.0 21.0 0.01 0.04 0.00 86 1016.0
20210923040015 67 203 15.0 22.0 0.01 0.04 0.00 86 1016.0
20210923035514 67 213 11.0 21.0 0.01 0.04 0.04 86 1016.0
20210923035018 67 189 9.0 12.0 0.01 0.04 0.04 87 1016.1
20210923034515 67 182 10.0 21.0 0.01 0.04 0.04 87 1016.1
20210923034020 67 240 7.0 15.0 0.01 0.04 0.04 88 1016.0
20210923033515 67 239 11.0 17.0 0.01 0.04 0.04 88 1016.0
20210923033021 67 206 10.0 15.0 0.01 0.04 0.04 88 1016.1
20210923032515 66 261 6.0 21.0 0.01 0.04 0.04 89 1016.2
20210923032020 66 190 9.0 17.0 0.00 0.03 0.03 90 1016.2
20210923031517 66 225 10.0 17.0 0.01 0.03 0.03 90 1016.1
20210923031031 67 178 9.0 16.0 0.01 0.03 0.03 89 1016.1
20210923030516 67 212 10.0 17.0 0.01 0.03 0.03 91 1016.1
20210923030016 66 232 7.0 9.0 0.02 0.03 0.03 92 1016.1